Terminal Aerodrome Forecast
Issued by NWS Cleveland, OH

Home | Current Version | Previous Version | Graphics & Text | Print | Product List | Glossary Off
Versions: 1 2 3 4 5 6 7 8 9 10 11 12 13 14 15 16 17 18 19 20 21 22

000
FTUS41 KCLE 172300
TAFTOL
TAF
KTOL 172329Z 1800/1824 20010KT P6SM SCT150 BKN250
     FM180500 21004KT P6SM BKN120 OVC200
     FM181000 25004KT P6SM VCSH SCT040 OVC100
     FM181400 31010KT P6SM SCT100 BKN200=

USA.gov is the U.S. government's official web portal to all federal, state and local government web resources and services.